createdAt,value
2018-09-11T00:01:20.896Z,15.05
2018-09-11T00:03:47.250Z,15.01
2018-09-11T00:06:13.560Z,14.97
2018-09-11T00:08:39.922Z,14.95
2018-09-11T00:11:06.244Z,14.92
2018-09-11T00:13:32.572Z,14.92
2018-09-11T00:15:58.897Z,14.98
2018-09-11T00:18:25.210Z,15.13
2018-09-11T00:20:51.561Z,15.11
2018-09-11T00:23:17.871Z,14.96
2018-09-11T00:25:44.190Z,14.99
2018-09-11T00:28:10.507Z,15.08
2018-09-11T00:30:36.824Z,15.02
2018-09-11T00:33:03.139Z,14.90
2018-09-11T00:35:29.448Z,14.88
2018-09-11T00:37:55.758Z,14.78
2018-09-11T00:40:22.074Z,14.86
2018-09-11T00:42:48.390Z,14.94
2018-09-11T00:45:14.706Z,15.08
2018-09-11T00:47:41.019Z,15.11
2018-09-11T00:50:07.332Z,15.15
2018-09-11T00:52:33.644Z,15.13
2018-09-11T00:54:59.954Z,15.09
2018-09-11T00:57:26.269Z,15.11
2018-09-11T00:59:52.614Z,15.11
2018-09-11T01:02:18.926Z,15.10
2018-09-11T01:04:45.276Z,15.12
2018-09-11T01:07:11.594Z,15.09
2018-09-11T01:09:37.909Z,15.02
2018-09-11T01:12:04.224Z,15.04
2018-09-11T01:14:30.542Z,15.03
2018-09-11T01:16:56.860Z,15.00
2018-09-11T01:19:23.214Z,14.96
2018-09-11T01:21:49.524Z,14.90
2018-09-11T01:24:15.841Z,14.88
2018-09-11T01:26:42.147Z,14.82
2018-09-11T01:29:08.505Z,14.72
2018-09-11T01:31:34.820Z,14.64
2018-09-11T01:34:01.152Z,14.66
2018-09-11T01:36:27.472Z,14.72
2018-09-11T01:38:53.792Z,14.80
2018-09-11T01:41:20.100Z,14.79
2018-09-11T01:43:46.417Z,14.76
2018-09-11T01:46:12.729Z,14.76
2018-09-11T01:48:39.063Z,14.75
2018-09-11T01:51:05.371Z,14.70
2018-09-11T01:53:31.687Z,14.52
2018-09-11T01:55:58.009Z,14.46
2018-09-11T01:58:24.332Z,14.40
2018-09-11T02:00:50.643Z,14.37
2018-09-11T02:03:16.959Z,14.34
2018-09-11T02:05:43.326Z,14.25
2018-09-11T02:08:09.629Z,14.36
2018-09-11T02:10:35.940Z,14.40
2018-09-11T02:13:02.248Z,14.39
2018-09-11T02:15:28.557Z,14.28
2018-09-11T02:17:54.867Z,14.24
2018-09-11T02:20:21.220Z,14.13
2018-09-11T02:22:47.533Z,14.04
2018-09-11T02:25:13.880Z,14.00
2018-09-11T02:27:40.193Z,13.94
2018-09-11T02:30:06.500Z,13.86
2018-09-11T02:32:32.816Z,13.98
2018-09-11T02:34:59.124Z,14.08
2018-09-11T02:37:25.439Z,14.06
2018-09-11T02:39:51.790Z,14.19
2018-09-11T02:42:18.105Z,14.29
2018-09-11T02:44:44.415Z,14.30
2018-09-11T02:47:10.724Z,14.19
2018-09-11T02:49:37.049Z,14.08
2018-09-11T02:52:03.357Z,14.14
2018-09-11T02:54:29.674Z,14.20
2018-09-11T02:56:55.994Z,14.19
2018-09-11T02:59:22.319Z,14.18
2018-09-11T03:01:48.629Z,14.15
2018-09-11T03:04:14.947Z,14.23
2018-09-11T03:06:41.265Z,14.26
2018-09-11T03:09:07.576Z,14.36
2018-09-11T03:11:33.893Z,14.35
2018-09-11T03:14:00.209Z,14.41
2018-09-11T03:16:26.529Z,14.31
2018-09-11T03:18:52.921Z,14.31
2018-09-11T03:21:19.210Z,14.24
2018-09-11T03:23:45.556Z,14.22
2018-09-11T03:26:11.869Z,14.23
2018-09-11T03:28:38.184Z,14.25
2018-09-11T03:31:04.496Z,14.33
2018-09-11T03:33:30.799Z,14.33
2018-09-11T03:35:57.117Z,14.40
2018-09-11T03:38:23.438Z,14.48
2018-09-11T03:40:49.790Z,14.48
2018-09-11T03:43:16.101Z,14.49
2018-09-11T03:45:42.421Z,14.42
2018-09-11T03:48:08.755Z,14.44
2018-09-11T03:50:35.071Z,14.37
2018-09-11T03:53:01.386Z,14.38
2018-09-11T03:55:27.714Z,14.35
2018-09-11T03:57:54.019Z,14.39
2018-09-11T04:00:20.386Z,14.43
2018-09-11T04:02:46.688Z,14.46
2018-09-11T04:05:13.000Z,14.46
2018-09-11T04:07:39.323Z,14.37
2018-09-11T04:10:05.648Z,14.28
2018-09-11T04:12:31.966Z,14.23
2018-09-11T04:14:58.288Z,14.14
2018-09-11T04:17:24.600Z,14.26
2018-09-11T04:19:50.916Z,14.39
2018-09-11T04:22:17.229Z,14.65
2018-09-11T04:24:43.547Z,14.96
2018-09-11T04:27:09.855Z,15.28
2018-09-11T04:29:36.171Z,15.42
2018-09-11T04:32:02.487Z,15.53
2018-09-11T04:34:28.792Z,15.60
2018-09-11T04:36:55.099Z,15.83
2018-09-11T04:39:21.407Z,15.94
2018-09-11T04:41:47.769Z,16.19
2018-09-11T04:44:14.087Z,16.40
2018-09-11T04:46:40.398Z,16.53
2018-09-11T04:49:06.723Z,16.77
2018-09-11T04:51:33.052Z,16.84
2018-09-11T04:53:59.359Z,16.88
2018-09-11T04:56:25.668Z,16.96
2018-09-11T04:58:51.984Z,17.10
2018-09-11T05:01:18.309Z,17.17
2018-09-11T05:03:44.621Z,17.29
2018-09-11T05:06:10.945Z,17.36
2018-09-11T05:08:37.251Z,17.55
2018-09-11T05:11:03.559Z,17.67
2018-09-11T05:13:29.880Z,17.74
2018-09-11T05:15:56.188Z,17.74
2018-09-11T05:18:22.505Z,17.74
2018-09-11T05:20:48.811Z,17.81
2018-09-11T05:23:15.125Z,17.90
2018-09-11T05:25:41.448Z,17.95
2018-09-11T05:28:07.761Z,18.26
2018-09-11T05:30:34.082Z,18.42
2018-09-11T05:33:01.240Z,18.48
2018-09-11T05:35:27.546Z,18.59
2018-09-11T05:37:53.866Z,18.60
2018-09-11T05:40:20.220Z,18.59
2018-09-11T05:42:46.738Z,18.50
2018-09-11T05:45:13.056Z,18.35
2018-09-11T05:47:39.360Z,18.66
2018-09-11T05:50:05.715Z,18.89
2018-09-11T05:52:32.034Z,19.09
2018-09-11T05:54:58.392Z,18.96
2018-09-11T05:57:24.710Z,19.07
2018-09-11T05:59:51.031Z,19.17
2018-09-11T06:02:17.354Z,19.26
2018-09-11T06:04:43.661Z,19.39
2018-09-11T06:07:09.973Z,19.74
2018-09-11T06:09:36.322Z,19.93
2018-09-11T06:12:02.630Z,20.36
2018-09-11T06:14:28.946Z,20.65
2018-09-11T06:16:55.270Z,20.80
2018-09-11T06:19:21.579Z,21.12
2018-09-11T06:21:47.895Z,21.32
2018-09-11T06:24:14.199Z,21.42
2018-09-11T06:26:40.520Z,21.52
2018-09-11T06:29:06.846Z,21.47
2018-09-11T06:31:33.144Z,21.62
2018-09-11T06:33:59.491Z,21.94
2018-09-11T06:36:25.803Z,22.25
2018-09-11T06:38:52.115Z,22.42
2018-09-11T06:41:18.437Z,22.49
2018-09-11T06:43:44.746Z,22.65
2018-09-11T06:46:11.057Z,22.98
2018-09-11T06:48:37.377Z,23.24
2018-09-11T06:51:03.698Z,23.36
2018-09-11T06:53:30.018Z,23.44
2018-09-11T06:55:56.335Z,23.47
2018-09-11T06:58:22.643Z,23.43
2018-09-11T07:00:48.963Z,23.40
2018-09-11T07:03:15.360Z,23.58
2018-09-11T07:05:41.673Z,23.75
2018-09-11T07:08:08.009Z,24.00
2018-09-11T07:10:34.334Z,24.18
2018-09-11T07:13:00.642Z,24.31
2018-09-11T07:15:26.961Z,24.49
2018-09-11T07:17:53.612Z,24.54
2018-09-11T07:20:20.282Z,24.50
2018-09-11T07:22:46.275Z,24.53
2018-09-11T07:25:12.592Z,24.54
2018-09-11T07:27:38.910Z,24.59
2018-09-11T07:30:05.228Z,24.89
2018-09-11T07:32:31.605Z,24.88
2018-09-11T07:34:57.862Z,25.01
2018-09-11T07:37:24.220Z,24.94
2018-09-11T07:39:50.527Z,25.10
2018-09-11T07:42:16.846Z,25.19
2018-09-11T07:44:43.199Z,25.11
2018-09-11T07:47:09.516Z,25.01
2018-09-11T07:49:35.852Z,25.09
2018-09-11T07:52:02.165Z,25.49
2018-09-11T07:54:28.471Z,25.57
2018-09-11T07:56:54.850Z,25.66
2018-09-11T07:59:21.143Z,25.75
2018-09-11T08:01:47.487Z,25.85
2018-09-11T08:04:13.802Z,25.60
2018-09-11T08:06:40.168Z,25.66
2018-09-11T08:09:06.521Z,25.65
2018-09-11T08:11:32.831Z,25.44
2018-09-11T08:13:59.148Z,25.59
2018-09-11T08:16:25.477Z,25.88
2018-09-11T08:18:51.771Z,26.01
2018-09-11T08:21:18.084Z,26.55
2018-09-11T08:23:44.396Z,26.75
2018-09-11T08:26:10.711Z,26.69
2018-09-11T08:28:37.031Z,26.55
2018-09-11T08:31:03.363Z,26.32
2018-09-11T08:33:29.684Z,26.57
2018-09-11T08:35:56.008Z,26.91
2018-09-11T08:38:22.327Z,25.68
2018-09-11T08:40:48.648Z,25.49
2018-09-11T08:43:14.972Z,25.86
2018-09-11T08:45:41.310Z,25.95
2018-09-11T08:48:07.670Z,26.55
2018-09-11T08:50:33.996Z,27.31
2018-09-11T08:53:00.337Z,27.69
2018-09-11T08:55:26.668Z,27.71
2018-09-11T08:57:53.013Z,27.44
2018-09-11T09:00:19.337Z,27.19
2018-09-11T09:02:45.661Z,27.07
2018-09-11T09:05:12.013Z,27.55
2018-09-11T09:07:38.332Z,26.91
2018-09-11T09:10:04.681Z,26.20
2018-09-11T09:12:30.967Z,26.32
2018-09-11T09:14:57.329Z,26.03
2018-09-11T09:17:23.616Z,26.26
2018-09-11T09:19:49.925Z,26.19
2018-09-11T09:22:16.295Z,26.61
2018-09-11T09:24:42.611Z,26.58
2018-09-11T09:27:08.977Z,26.41
2018-09-11T09:29:35.251Z,26.55
2018-09-11T09:32:01.607Z,26.41
2018-09-11T09:34:27.926Z,26.40
2018-09-11T09:36:54.243Z,25.25
2018-09-11T09:39:20.558Z,25.67
2018-09-11T09:41:46.881Z,25.49
2018-09-11T09:44:13.196Z,25.18
2018-09-11T09:46:39.504Z,25.67
2018-09-11T09:49:05.828Z,26.18
2018-09-11T09:51:32.151Z,25.82
2018-09-11T09:53:58.470Z,26.08
2018-09-11T09:56:24.775Z,26.16
2018-09-11T09:58:51.128Z,25.70
2018-09-11T10:01:17.440Z,25.87
2018-09-11T10:03:43.772Z,26.29
2018-09-11T10:06:10.085Z,26.96
2018-09-11T10:08:36.395Z,26.90
2018-09-11T10:11:02.703Z,26.81
2018-09-11T10:13:29.028Z,26.34
2018-09-11T10:15:55.344Z,25.75
2018-09-11T10:18:21.652Z,25.65
2018-09-11T10:20:47.959Z,26.10
2018-09-11T10:23:14.272Z,26.76
2018-09-11T10:25:40.579Z,26.84
2018-09-11T10:28:06.899Z,26.10
2018-09-11T10:30:33.300Z,25.66
2018-09-11T10:32:59.582Z,25.42
2018-09-11T10:35:25.896Z,25.64
2018-09-11T10:37:52.208Z,26.27
2018-09-11T10:40:18.516Z,26.77
2018-09-11T10:42:44.921Z,26.73
2018-09-11T10:45:11.242Z,27.12
2018-09-11T10:47:37.564Z,27.48
2018-09-11T10:50:03.895Z,28.00
2018-09-11T10:52:30.204Z,27.33
2018-09-11T10:54:56.526Z,26.74
2018-09-11T10:57:22.848Z,27.01
2018-09-11T10:59:49.178Z,26.93
2018-09-11T11:02:15.529Z,26.98
2018-09-11T11:04:41.814Z,27.36
2018-09-11T11:07:08.151Z,27.37
2018-09-11T11:09:34.470Z,27.23
2018-09-11T11:12:00.792Z,26.99
2018-09-11T11:14:27.104Z,26.94
2018-09-11T11:16:53.499Z,26.76
2018-09-11T11:19:19.797Z,26.48
2018-09-11T11:21:46.113Z,26.53
2018-09-11T11:24:12.436Z,26.64
2018-09-11T11:26:38.752Z,26.71
2018-09-11T11:29:05.072Z,26.42
2018-09-11T11:31:31.384Z,26.01
2018-09-11T11:33:57.720Z,25.76
2018-09-11T11:36:24.580Z,25.48
2018-09-11T11:38:50.736Z,25.89
2018-09-11T11:41:17.048Z,26.25
2018-09-11T11:43:43.367Z,27.00
2018-09-11T11:46:09.682Z,27.61
2018-09-11T11:48:36.002Z,28.14
2018-09-11T11:51:02.308Z,28.78
2018-09-11T11:53:28.621Z,29.19
2018-09-11T11:55:54.987Z,29.60
2018-09-11T11:58:21.367Z,29.29
2018-09-11T12:00:47.690Z,29.12
2018-09-11T12:03:14.079Z,28.84
2018-09-11T12:05:40.399Z,29.00
2018-09-11T12:08:06.722Z,29.06
2018-09-11T12:10:33.038Z,28.79
2018-09-11T12:12:59.365Z,29.00
2018-09-11T12:15:25.684Z,29.60
2018-09-11T12:17:52.002Z,30.05
2018-09-11T12:20:18.330Z,30.30
2018-09-11T12:22:44.656Z,30.57
2018-09-11T12:25:10.983Z,30.33
2018-09-11T12:27:37.297Z,29.81
2018-09-11T12:30:03.656Z,29.29
2018-09-11T12:32:29.983Z,29.63
2018-09-11T12:34:56.311Z,30.00
2018-09-11T12:37:22.627Z,30.33
2018-09-11T12:39:48.950Z,30.00
2018-09-11T12:42:15.263Z,29.75
2018-09-11T12:44:41.591Z,29.35
2018-09-11T12:47:08.075Z,28.25
2018-09-11T12:49:34.233Z,27.69
2018-09-11T12:52:00.557Z,27.34
2018-09-11T12:54:26.869Z,27.08
2018-09-11T12:56:53.198Z,26.96
2018-09-11T12:59:19.524Z,26.58
2018-09-11T13:01:45.851Z,26.60
2018-09-11T13:04:12.183Z,26.33
2018-09-11T13:06:38.506Z,26.22
2018-09-11T13:09:04.838Z,26.17
2018-09-11T13:11:31.162Z,26.18
2018-09-11T13:13:57.492Z,26.23
2018-09-11T13:16:23.805Z,26.42
2018-09-11T13:18:50.135Z,26.44
2018-09-11T13:21:16.447Z,26.46
2018-09-11T13:23:42.793Z,26.52
2018-09-11T13:26:09.110Z,26.73
2018-09-11T13:28:35.437Z,26.87
2018-09-11T13:31:01.749Z,27.06
2018-09-11T13:33:28.068Z,26.90
2018-09-11T13:35:54.395Z,26.47
2018-09-11T13:38:20.726Z,26.23
2018-09-11T13:40:47.040Z,26.29
2018-09-11T13:43:13.347Z,26.27
2018-09-11T13:45:39.677Z,26.30
2018-09-11T13:48:06.002Z,26.53
2018-09-11T13:50:32.321Z,26.55
2018-09-11T13:52:58.699Z,26.50
2018-09-11T13:55:25.010Z,26.30
2018-09-11T13:57:51.344Z,26.19
2018-09-11T14:00:17.654Z,26.06
2018-09-11T14:02:44.076Z,26.20
2018-09-11T14:05:10.314Z,26.21
2018-09-11T14:07:36.630Z,26.04
2018-09-11T14:10:02.941Z,26.14
2018-09-11T14:12:29.270Z,26.08
2018-09-11T14:14:55.594Z,25.96
2018-09-11T14:17:21.921Z,25.87
2018-09-11T14:19:48.251Z,25.74
2018-09-11T14:22:14.607Z,25.66
2018-09-11T14:24:40.937Z,25.58
2018-09-11T14:27:07.255Z,25.53
2018-09-11T14:29:33.581Z,25.32
2018-09-11T14:31:59.899Z,25.18
2018-09-11T14:34:26.258Z,24.81
2018-09-11T14:36:52.584Z,24.72
2018-09-11T14:39:18.915Z,24.62
2018-09-11T14:41:45.237Z,24.48
2018-09-11T14:44:11.562Z,24.41
2018-09-11T14:46:37.916Z,24.20
2018-09-11T14:49:04.189Z,24.13
2018-09-11T14:51:30.498Z,24.19
2018-09-11T14:53:56.849Z,24.26
2018-09-11T14:56:23.168Z,24.26
2018-09-11T14:58:49.495Z,24.31
2018-09-11T15:01:15.819Z,24.31
2018-09-11T15:03:42.168Z,24.25
2018-09-11T15:06:08.452Z,24.18
2018-09-11T15:08:34.813Z,24.08
2018-09-11T15:11:01.150Z,24.01
2018-09-11T15:13:27.459Z,23.88
2018-09-11T15:15:53.785Z,23.80
2018-09-11T15:18:20.114Z,23.73
2018-09-11T15:20:46.442Z,23.65
2018-09-11T15:23:12.769Z,23.59
2018-09-11T15:25:39.083Z,23.58
2018-09-11T15:28:05.415Z,23.59
2018-09-11T15:30:31.729Z,23.60
2018-09-11T15:32:58.055Z,23.59
2018-09-11T15:35:24.423Z,23.63
2018-09-11T15:37:50.736Z,23.62
2018-09-11T15:40:17.058Z,23.61
2018-09-11T15:42:43.377Z,23.62
2018-09-11T15:45:09.742Z,23.57
2018-09-11T15:47:36.077Z,23.51
2018-09-11T15:50:02.393Z,23.41
2018-09-11T15:52:28.722Z,23.29
2018-09-11T15:54:55.040Z,23.21
2018-09-11T15:57:21.365Z,23.15
2018-09-11T15:59:47.678Z,23.08
2018-09-11T16:02:14.039Z,23.03
2018-09-11T16:04:40.348Z,22.94
2018-09-11T16:07:06.736Z,22.90
2018-09-11T16:09:33.008Z,22.84
2018-09-11T16:11:59.341Z,22.82
2018-09-11T16:14:25.656Z,22.78
2018-09-11T16:16:51.968Z,22.73
2018-09-11T16:19:18.298Z,22.66
2018-09-11T16:21:44.610Z,22.62
2018-09-11T16:24:10.934Z,22.58
2018-09-11T16:26:37.249Z,22.54
2018-09-11T16:29:03.595Z,22.50
2018-09-11T16:31:29.908Z,22.39
2018-09-11T16:33:56.245Z,22.33
2018-09-11T16:36:22.556Z,22.29
2018-09-11T16:38:48.913Z,22.19
2018-09-11T16:41:15.260Z,22.14
2018-09-11T16:43:41.585Z,22.11
2018-09-11T16:46:07.900Z,22.05
2018-09-11T16:48:34.232Z,21.96
2018-09-11T16:51:00.553Z,21.91
2018-09-11T16:53:26.869Z,21.84
2018-09-11T16:55:53.212Z,21.83
2018-09-11T16:58:19.566Z,21.79
2018-09-11T17:00:45.897Z,21.82
2018-09-11T17:03:12.204Z,21.75
2018-09-11T17:05:38.516Z,21.70
2018-09-11T17:08:04.838Z,21.71
2018-09-11T17:10:31.168Z,21.71
2018-09-11T17:12:57.502Z,21.69
2018-09-11T17:15:23.824Z,21.71
2018-09-11T17:17:50.139Z,21.74
2018-09-11T17:20:16.541Z,21.67
2018-09-11T17:22:42.778Z,21.65
2018-09-11T17:25:09.089Z,21.65
2018-09-11T17:27:35.404Z,21.63
2018-09-11T17:30:01.775Z,21.58
2018-09-11T17:32:28.130Z,21.54
2018-09-11T17:34:54.465Z,21.49
2018-09-11T17:37:20.851Z,21.39
2018-09-11T17:39:47.160Z,21.32
2018-09-11T17:42:13.486Z,21.28
2018-09-11T17:44:39.810Z,21.28
2018-09-11T17:47:06.116Z,21.28
2018-09-11T17:49:32.427Z,21.26
2018-09-11T17:51:58.750Z,21.22
2018-09-11T17:54:25.084Z,21.18
2018-09-11T17:56:51.409Z,21.08
2018-09-11T17:59:17.720Z,20.99
2018-09-11T18:01:44.032Z,20.97
2018-09-11T18:04:10.340Z,20.92
2018-09-11T18:06:36.681Z,20.86
2018-09-11T18:09:03.173Z,20.81
2018-09-11T18:11:29.476Z,20.76
2018-09-11T18:13:55.789Z,20.76
2018-09-11T18:16:22.105Z,20.64
2018-09-11T18:18:48.427Z,20.59
2018-09-11T18:21:14.754Z,20.61
2018-09-11T18:23:41.065Z,20.53
2018-09-11T18:26:07.399Z,20.44
2018-09-11T18:28:33.706Z,20.40
2018-09-11T18:31:00.018Z,20.30
2018-09-11T18:33:26.333Z,20.25
2018-09-11T18:35:52.666Z,20.22
2018-09-11T18:38:18.982Z,20.19
2018-09-11T18:40:45.350Z,20.15
2018-09-11T18:43:11.622Z,20.07
2018-09-11T18:45:37.947Z,20.01
2018-09-11T18:48:04.272Z,20.05
2018-09-11T18:50:30.602Z,20.03
2018-09-11T18:52:56.936Z,19.98
2018-09-11T18:55:23.272Z,19.98
2018-09-11T18:57:49.613Z,19.94
2018-09-11T19:00:15.918Z,19.88
2018-09-11T19:02:42.273Z,19.78
2018-09-11T19:05:08.647Z,19.70
2018-09-11T19:07:34.940Z,19.64
2018-09-11T19:10:01.247Z,19.60
2018-09-11T19:12:27.566Z,19.58
2018-09-11T19:14:53.890Z,19.56
2018-09-11T19:17:20.206Z,19.54
2018-09-11T19:19:46.563Z,19.54
2018-09-11T19:22:12.841Z,19.53
2018-09-11T19:24:39.152Z,19.52
2018-09-11T19:27:05.514Z,19.53
2018-09-11T19:29:31.836Z,19.51
2018-09-11T19:31:58.166Z,19.48
2018-09-11T19:34:24.535Z,19.46
2018-09-11T19:36:50.868Z,19.46
2018-09-11T19:39:17.176Z,19.46
2018-09-11T19:41:43.547Z,19.47
2018-09-11T19:44:09.848Z,19.45
2018-09-11T19:46:36.165Z,19.46
2018-09-11T19:49:02.519Z,19.43
2018-09-11T19:51:28.843Z,19.36
2018-09-11T19:53:55.161Z,19.28
2018-09-11T19:56:21.484Z,19.26
2018-09-11T19:58:47.807Z,19.27
2018-09-11T20:01:14.107Z,19.26
2018-09-11T20:03:40.417Z,19.30
2018-09-11T20:06:06.736Z,19.30
2018-09-11T20:08:33.092Z,19.30
2018-09-11T20:10:59.407Z,19.22
2018-09-11T20:13:25.729Z,19.11
2018-09-11T20:15:52.046Z,19.02
2018-09-11T20:18:18.372Z,18.79
2018-09-11T20:20:44.721Z,18.58
2018-09-11T20:23:11.044Z,18.50
2018-09-11T20:25:37.352Z,18.37
2018-09-11T20:28:03.746Z,18.25
2018-09-11T20:30:30.022Z,18.21
2018-09-11T20:32:56.424Z,18.12
2018-09-11T20:35:22.742Z,18.04
2018-09-11T20:37:49.056Z,17.99
2018-09-11T20:40:15.373Z,17.89
2018-09-11T20:42:41.719Z,17.83
2018-09-11T20:45:08.101Z,17.84
2018-09-11T20:47:34.355Z,17.82
2018-09-11T20:50:00.669Z,17.75
2018-09-11T20:52:26.990Z,17.65
2018-09-11T20:54:53.312Z,17.59
2018-09-11T20:57:19.636Z,17.51
2018-09-11T20:59:45.970Z,17.43
2018-09-11T21:02:12.299Z,17.46
2018-09-11T21:04:38.610Z,17.52
2018-09-11T21:07:04.939Z,17.45
2018-09-11T21:09:31.266Z,17.51
2018-09-11T21:11:57.574Z,17.53
2018-09-11T21:14:23.887Z,17.45
2018-09-11T21:16:50.208Z,17.37
2018-09-11T21:19:16.515Z,17.28
2018-09-11T21:21:42.865Z,17.17
2018-09-11T21:24:09.191Z,17.21
2018-09-11T21:26:35.519Z,17.15
2018-09-11T21:29:01.842Z,17.13
2018-09-11T21:31:28.171Z,17.09
2018-09-11T21:33:54.494Z,17.10
2018-09-11T21:36:20.801Z,17.05
2018-09-11T21:38:47.118Z,17.00
2018-09-11T21:41:13.485Z,16.96
2018-09-11T21:43:39.802Z,16.89
2018-09-11T21:46:06.141Z,16.81
2018-09-11T21:48:32.436Z,16.79
2018-09-11T21:50:58.755Z,16.82
2018-09-11T21:53:25.110Z,16.86
2018-09-11T21:55:54.307Z,16.73
2018-09-11T21:58:20.602Z,16.73
2018-09-11T22:00:53.030Z,16.80
2018-09-11T22:03:21.959Z,16.69
2018-09-11T22:05:48.309Z,16.63
2018-09-11T22:08:14.592Z,16.63
2018-09-11T22:10:40.953Z,16.55
2018-09-11T22:13:07.233Z,16.37
2018-09-11T22:15:33.544Z,16.29
2018-09-11T22:17:59.874Z,16.20
2018-09-11T22:20:26.179Z,16.29
2018-09-11T22:22:52.487Z,16.31
2018-09-11T22:25:18.795Z,16.32
2018-09-11T22:27:45.104Z,16.40
2018-09-11T22:30:11.452Z,16.47
2018-09-11T22:32:37.772Z,16.51
2018-09-11T22:35:04.079Z,16.56
2018-09-11T22:37:30.392Z,16.51
2018-09-11T22:39:56.743Z,16.53
2018-09-11T22:42:23.106Z,16.57
2018-09-11T22:44:49.371Z,16.42
2018-09-11T22:47:15.684Z,16.35
2018-09-11T22:49:42.035Z,16.27
2018-09-11T22:52:08.316Z,16.31
2018-09-11T22:54:34.674Z,16.36
2018-09-11T22:57:00.986Z,16.30
2018-09-11T22:59:27.304Z,16.36
2018-09-11T23:01:53.614Z,16.44
2018-09-11T23:04:19.979Z,16.36
2018-09-11T23:06:46.306Z,16.31
2018-09-11T23:09:12.650Z,16.32
2018-09-11T23:11:38.955Z,16.37
2018-09-11T23:14:05.311Z,16.40
2018-09-11T23:16:31.617Z,16.41
2018-09-11T23:18:57.943Z,16.41
2018-09-11T23:21:24.252Z,16.39
2018-09-11T23:23:50.582Z,16.43
2018-09-11T23:26:16.892Z,16.46
2018-09-11T23:28:43.205Z,16.49
2018-09-11T23:31:09.562Z,16.52
2018-09-11T23:33:35.936Z,16.49
2018-09-11T23:36:02.248Z,16.18
2018-09-11T23:38:28.572Z,16.03
2018-09-11T23:40:54.892Z,16.01
2018-09-11T23:43:21.211Z,16.02
2018-09-11T23:45:47.523Z,16.06
2018-09-11T23:48:13.843Z,16.03
2018-09-11T23:50:40.148Z,15.95
2018-09-11T23:53:06.463Z,15.95
2018-09-11T23:55:32.783Z,15.88
2018-09-11T23:57:59.099Z,15.91
